Victoriya — V3YB4 — position and weather

sailwx.info

Track history (hours):
 
Tides and Currents Weather Stations Pressure Air Temp Water Temp Dewpoint Dewpoint Depression Visibility Wind Speed Wind Dir Waves Ship Positions

Victoriya

Last reported at 2017-Sep-21 12:21 UTC. Time now 2017-Sep-24 05:09 UTC.
Position N 36°17' E 014°43'.

Length 186 m; draft 8 m.

Type: Cargo ship. MMSI: 312503000.

Date/timePositionNaut miles runAvg speedWind from/ knotsBaromVisibWave heightAir tempDewpointWater temp
2017-Sep-21 12:21N 36°17' E 014°43'412.5
2017-Sep-21 12:00N 36°19' E 014°38'612.7
2017-Sep-21 11:30N 36°20' E 014°30'612.8
2017-Sep-21 11:00N 36°22' E 014°23'612.6
2017-Sep-21 10:30N 36°24' E 014°15'612.6
2017-Sep-21 10:00N 36°26' E 014°08'612.5
2017-Sep-21 09:30N 36°28' E 014°01'712.4
2017-Sep-21 08:57N 36°30' E 013°53'  
2017-Sep-18 21:28N 36°37' W 000°21'612.0
2017-Sep-18 21:00N 36°36' W 000°28'1011.9
2017-Sep-18 20:11N 36°35' W 000°40'211.9
2017-Sep-18 19:59N 36°34' W 000°42'22012.9
2017-Sep-18 02:58N 35°60' W 005°11'714.8
2017-Sep-18 02:31N 35°59' W 005°19'714.1
2017-Sep-18 02:00N 35°57' W 005°28'12111.7
2017-Sep-17 15:44N 36°16' W 007°55'312.2
2017-Sep-17 15:30N 36°17' W 007°59'612.1
2017-Sep-17 15:00N 36°19' W 008°06'612.0
2017-Sep-17 14:30N 36°20' W 008°13'612.2
2017-Sep-17 14:00N 36°22' W 008°20'612.5
2017-Sep-17 13:30N 36°24' W 008°28'612.4
2017-Sep-17 13:00N 36°25' W 008°35'13310.7
2017-Sep-17 00:34N 38°20' W 010°00'112.0
2017-Sep-17 00:30N 38°20' W 010°00'612.2
2017-Sep-17 00:00N 38°26' W 010°02'612.1
2017-Sep-16 23:30N 38°32' W 010°04'612.3
2017-Sep-16 23:00N 38°38' W 010°05'611.9
2017-Sep-16 22:30N 38°44' W 010°07'612.0
2017-Sep-16 22:00N 38°50' W 010°06'611.9
2017-Sep-16 21:30N 38°56' W 010°06'611.6
2017-Sep-16 21:00N 39°02' W 010°06'611.6
2017-Sep-16 20:30N 39°08' W 010°06'712.0
2017-Sep-16 19:57N 39°14' W 010°06'  
2017-Sep-14 06:24N 45°37' W 001°37'6 7.6
2017-Sep-14 05:34N 45°35' W 001°28'1 7.3
2017-Sep-14 05:30N 45°34' W 001°27'4 7.8
2017-Sep-14 05:00N 45°36' W 001°22'5 9.4
2017-Sep-14 04:28N 45°39' W 001°16'510.4
2017-Sep-14 04:00N 45°39' W 001°09'510.1
2017-Sep-14 03:30N 45°36' W 001°04'510.6
2017-Sep-14 03:00N 45°31' W 000°59'612.8
2017-Sep-14 02:30N 45°27' W 000°53'712.6
2017-Sep-14 01:59N 45°21' W 000°48'  
Track history (hours):
 
Tides and Currents Weather Stations Pressure Air Temp Water Temp Dewpoint Dewpoint Depression Visibility Wind Speed Wind Dir Waves Ship Positions

Victoriya

Last reported at 2017-Sep-21 12:21 UTC. Time now 2017-Sep-24 05:09 UTC.
Position N 36°17' E 014°43'.

Length 186 m; draft 8 m.

Type: Cargo ship. MMSI: 312503000.

Date/timePositionNaut miles runAvg speedWind from/ knotsBaromVisibWave heightAir tempDewpointWater temp
2017-Sep-21 12:21N 36°17' E 014°43'412.5
2017-Sep-21 12:00N 36°19' E 014°38'612.7
2017-Sep-21 11:30N 36°20' E 014°30'612.8
2017-Sep-21 11:00N 36°22' E 014°23'612.6
2017-Sep-21 10:30N 36°24' E 014°15'612.6
2017-Sep-21 10:00N 36°26' E 014°08'612.5
2017-Sep-21 09:30N 36°28' E 014°01'712.4
2017-Sep-21 08:57N 36°30' E 013°53'  
2017-Sep-18 21:28N 36°37' W 000°21'612.0
2017-Sep-18 21:00N 36°36' W 000°28'1011.9
2017-Sep-18 20:11N 36°35' W 000°40'211.9
2017-Sep-18 19:59N 36°34' W 000°42'22012.9
2017-Sep-18 02:58N 35°60' W 005°11'714.8
2017-Sep-18 02:31N 35°59' W 005°19'714.1
2017-Sep-18 02:00N 35°57' W 005°28'12111.7
2017-Sep-17 15:44N 36°16' W 007°55'312.2
2017-Sep-17 15:30N 36°17' W 007°59'612.1
2017-Sep-17 15:00N 36°19' W 008°06'612.0
2017-Sep-17 14:30N 36°20' W 008°13'612.2
2017-Sep-17 14:00N 36°22' W 008°20'612.5
2017-Sep-17 13:30N 36°24' W 008°28'612.4
2017-Sep-17 13:00N 36°25' W 008°35'13310.7
2017-Sep-17 00:34N 38°20' W 010°00'112.0
2017-Sep-17 00:30N 38°20' W 010°00'612.2
2017-Sep-17 00:00N 38°26' W 010°02'612.1
2017-Sep-16 23:30N 38°32' W 010°04'612.3
2017-Sep-16 23:00N 38°38' W 010°05'611.9
2017-Sep-16 22:30N 38°44' W 010°07'612.0
2017-Sep-16 22:00N 38°50' W 010°06'611.9
2017-Sep-16 21:30N 38°56' W 010°06'611.6
2017-Sep-16 21:00N 39°02' W 010°06'611.6
2017-Sep-16 20:30N 39°08' W 010°06'712.0
2017-Sep-16 19:57N 39°14' W 010°06'  
2017-Sep-14 06:24N 45°37' W 001°37'6 7.6
2017-Sep-14 05:34N 45°35' W 001°28'1 7.3
2017-Sep-14 05:30N 45°34' W 001°27'4 7.8
2017-Sep-14 05:00N 45°36' W 001°22'5 9.4
2017-Sep-14 04:28N 45°39' W 001°16'510.4
2017-Sep-14 04:00N 45°39' W 001°09'510.1
2017-Sep-14 03:30N 45°36' W 001°04'510.6
2017-Sep-14 03:00N 45°31' W 000°59'612.8
2017-Sep-14 02:30N 45°27' W 000°53'712.6
2017-Sep-14 01:59N 45°21' W 000°48'  

Dump ship's entire track history